Sommer S — WDG3830 — position and weather

sailwx.info

Track history (hours):
 
Tides and Currents Weather Stations Pressure Air Temp Water Temp Dewpoint Dewpoint Depression Visibility Wind Speed Wind Dir Waves Ship Positions

Sommer S

Owner: Shaver Transportation Company, Portland, OR. More information available from US FCC via Universal Licensing System and Coast Guard Vessel Documentation Center.

Last reported at 2016-May-28 04:30 UTC. Time now 2016-May-28 06:02 UTC.
Position N 45°39' W 122°44'.

Length 25 m; draft 16.5 m.

Type: Tug. MMSI: 367530080.

Date/timePositionNaut miles runAvg speedWind from/ knotsBaromVisibWave heightAir tempDewpointWater temp
2016-May-28 04:30N 45°39' W 122°44'1 1.5
2016-May-28 03:34N 45°38' W 122°42'1 0.9
2016-May-28 02:32N 45°38' W 122°44'0 0.0
2016-May-28 01:32N 45°38' W 122°44'1 0.6
2016-May-28 00:29N 45°39' W 122°44'1 1.0
2016-May-27 23:33N 45°38' W 122°43'0 0.0
2016-May-27 22:33N 45°38' W 122°43'0 0.0
2016-May-27 21:33N 45°38' W 122°43'0 0.5
2016-May-27 20:33N 45°38' W 122°44'0 0.0
2016-May-27 19:33N 45°38' W 122°44'3 3.1
2016-May-27 18:33N 45°36' W 122°47'3 3.2
2016-May-27 17:33N 45°34' W 122°44'0 0.0
2016-May-27 16:33N 45°34' W 122°44'0 0.0
2016-May-27 15:33N 45°34' W 122°44'0 0.0
2016-May-27 14:33N 45°34' W 122°44'0 0.0
2016-May-27 13:33N 45°34' W 122°44'0 0.0
2016-May-27 12:30N 45°34' W 122°44'0 0.0
2016-May-27 11:30N 45°34' W 122°44'0 0.1
2016-May-27 10:33N 45°34' W 122°44'5 5.3
2016-May-27 09:33N 45°38' W 122°47'1 1.1
2016-May-27 08:33N 45°39' W 122°46'1 0.8
2016-May-27 07:30N 45°39' W 122°45'0 0.0
2016-May-27 06:33N 45°39' W 122°45'0 0.0
2016-May-27 05:27N 45°39' W 122°45'0 0.0
2016-May-27 04:34N 45°39' W 122°45'0 0.0
2016-May-27 03:31N 45°39' W 122°45'1 1.2
2016-May-27 02:31N 45°38' W 122°43'0 0.1
2016-May-27 01:33N 45°38' W 122°43'0 0.3
2016-May-27 00:33N 45°38' W 122°43'1 0.8
2016-May-26 23:32N 45°38' W 122°44'0 0.0
2016-May-26 22:32N 45°38' W 122°44'2 1.6
2016-May-26 21:33N 45°38' W 122°42'2 1.5
2016-May-26 20:33N 45°38' W 122°44'0 0.0
2016-May-26 19:30N 45°38' W 122°44'0 0.0
2016-May-26 18:33N 45°38' W 122°44'1 0.9
2016-May-26 17:32N 45°38' W 122°42'2 1.9
2016-May-26 16:29N 45°39' W 122°45'0 0.0
2016-May-26 15:32N 45°39' W 122°45'0 0.0
2016-May-26 14:26N 45°39' W 122°45'0 0.0
2016-May-26 13:32N 45°39' W 122°45'3 3.0
2016-May-26 12:34N 45°36' W 122°47'2 2.3
2016-May-26 11:31N 45°34' W 122°44'5 5.4
2016-May-26 10:33N 45°39' W 122°46'1 0.9
2016-May-26 09:32N 45°38' W 122°46'1 0.8
2016-May-26 08:28N 45°39' W 122°45'0 0.0
2016-May-26 07:31N 45°39' W 122°45'0 0.0
2016-May-26 06:31N 45°39' W 122°45'0 0.0
2016-May-26 05:28N 45°39' W 122°45'0 0.0
2016-May-26 04:28N 45°39' W 122°45'0 0.0
2016-May-26 03:28N 45°39' W 122°45'0 0.2
2016-May-26 02:28N 45°39' W 122°45'0 0.2
2016-May-26 01:33N 45°39' W 122°45'0 0.0
2016-May-26 00:30N 45°39' W 122°45'0 0.0
2016-May-25 23:33N 45°39' W 122°45'0 0.0
2016-May-25 22:30N 45°39' W 122°45'0 0.0
2016-May-25 21:33N 45°39' W 122°45'1 1.3
2016-May-25 20:33N 45°39' W 122°43'1 0.6
2016-May-25 19:28N 45°38' W 122°43'2 1.9
2016-May-25 18:29N 45°39' W 122°45'0 0.0
2016-May-25 17:29N 45°39' W 122°45'1 0.8
2016-May-25 16:34N 45°39' W 122°46'5 4.4
2016-May-25 15:26N 45°34' W 122°44'1 0.7
2016-May-25 14:33N 45°35' W 122°45'4 4.0
2016-May-25 13:33N 45°38' W 122°44'1 1.1
2016-May-25 12:32N 45°38' W 122°42'2 2.1
2016-May-25 11:32N 45°39' W 122°45'0 0.0
2016-May-25 10:29N 45°39' W 122°45'0 0.0
2016-May-25 09:29N 45°39' W 122°45'0 0.0
2016-May-25 08:32N 45°39' W 122°45'0 0.0
2016-May-25 07:32N 45°39' W 122°45'0 0.0
2016-May-25 06:29N 45°39' W 122°45'0 0.0
2016-May-25 05:29N 45°39' W 122°45'0 0.0
2016-May-25 04:32N 45°39' W 122°45'0 0.0
2016-May-25 03:29N 45°39' W 122°45'0 0.0
2016-May-25 02:32N 45°39' W 122°45'0 0.0
2016-May-25 01:32N 45°39' W 122°45'3 2.5
2016-May-25 00:31N 45°38' W 122°42'1 1.1
2016-May-24 23:33N 45°38' W 122°43'1 1.1
2016-May-24 22:30N 45°38' W 122°42'2 2.3
2016-May-24 21:29N 45°39' W 122°45'0 0.0
2016-May-24 20:29N 45°39' W 122°45'0 0.0
2016-May-24 19:29N 45°39' W 122°45'0 0.0
2016-May-24 18:29N 45°39' W 122°45'2 2.4
2016-May-24 17:33N 45°37' W 122°47'4 4.1
2016-May-24 16:34N 45°34' W 122°44'0 0.2
2016-May-24 15:29N 45°34' W 122°44'0 0.1
2016-May-24 14:34N 45°34' W 122°44'0 0.0
2016-May-24 09:33N 45°34' W 122°44'5 5.0
2016-May-24 08:33N 45°39' W 122°45'1 1.0
2016-May-24 07:28N 45°38' W 122°44'1 0.7
2016-May-24 06:33N 45°39' W 122°45'1 0.7
2016-May-24 05:31N 45°38' W 122°44'2 1.6
2016-May-24 04:33N 45°39' W 122°45'6 5.8
2016-May-24 03:31N 45°33' W 122°43'2 2.0
2016-May-24 02:33N 45°32' W 122°41'3 2.5
2016-May-24 01:33N 45°34' W 122°44'0 0.0
2016-May-24 00:31N 45°34' W 122°44'1 1.3
2016-May-23 23:33N 45°35' W 122°45'4 4.0
2016-May-23 22:33N 45°39' W 122°45'1 1.0
2016-May-23 21:33N 45°39' W 122°46'0 0.4
2016-May-23 20:33N 45°39' W 122°46'1 0.5
2016-May-23 19:28N 45°39' W 122°45'1 0.6
2016-May-23 18:33N 45°39' W 122°44'1 0.5
2016-May-23 17:28N 45°39' W 122°45'3 2.6
2016-May-23 16:29N 45°38' W 122°42'2 1.6
2016-May-23 15:34N 45°38' W 122°44'4 3.8
2016-May-23 14:33N 45°35' W 122°45'1 1.2
2016-May-23 13:32N 45°34' W 122°44'0 0.0
2016-May-23 12:32N 45°34' W 122°44'0 0.0
2016-May-23 11:32N 45°34' W 122°44'0 0.0
2016-May-23 10:32N 45°34' W 122°44'0 0.0
2016-May-23 09:29N 45°34' W 122°44'0 0.0
2016-May-23 08:26N 45°34' W 122°44'2 2.1
2016-May-23 07:34N 45°35' W 122°46'4 3.6
2016-May-23 06:32N 45°39' W 122°44'1 1.4
2016-May-23 05:34N 45°40' W 122°46'1 1.0
2016-May-23 04:32N 45°39' W 122°45'0 0.0
2016-May-23 03:32N 45°39' W 122°45'5 5.2
2016-May-23 02:33N 45°34' W 122°43'1 1.2
2016-May-23 01:28N 45°33' W 122°42'5 5.8
2016-May-23 00:33N 45°37' W 122°47'2 2.4
2016-May-22 23:32N 45°39' W 122°45'1 0.5
2016-May-22 22:33N 45°39' W 122°45'0 0.1
2016-May-22 21:31N 45°39' W 122°45'0 0.5
2016-May-22 20:33N 45°39' W 122°45'0 0.2
2016-May-22 19:25N 45°39' W 122°45'0 0.0
2016-May-22 18:31N 45°39' W 122°45'0 0.0
2016-May-22 17:31N 45°39' W 122°45'0 0.1
2016-May-22 16:33N 45°39' W 122°45'0 0.4
2016-May-22 15:29N 45°39' W 122°46'0 0.0
2016-May-22 14:32N 45°39' W 122°46'0 0.0
2016-May-22 13:32N 45°39' W 122°46'0 0.0
2016-May-22 12:29N 45°39' W 122°46'0 0.0
2016-May-22 11:32N 45°39' W 122°46'0 0.0
2016-May-22 10:29N 45°39' W 122°46'0 0.2
2016-May-22 09:33N 45°39' W 122°45'3 2.6
2016-May-22 08:33N 45°38' W 122°42'2 2.4
2016-May-22 07:34N 45°39' W 122°45'0 0.0
2016-May-22 06:33N 45°39' W 122°45'0 0.0
2016-May-22 05:33N 45°39' W 122°45'0 0.0
2016-May-22 04:33N 45°39' W 122°45'1 1.2
2016-May-22 03:34N 45°38' W 122°43'0 0.2
2016-May-22 02:34N 45°38' W 122°44'0 0.0
2016-May-22 01:31N 45°38' W 122°44'0 0.0
2016-May-22 00:31N 45°38' W 122°44'1 0.8
2016-May-21 23:27N 45°38' W 122°43'2 1.5
2016-May-21 22:23N 45°39' W 122°45'0 0.6
2016-May-21 21:34N 45°39' W 122°45'0 0.3
2016-May-21 20:33N 45°39' W 122°45'0 0.2
2016-May-21 19:33N 45°39' W 122°45'0 0.0
2016-May-21 18:27N 45°39' W 122°45'0 0.0
2016-May-21 17:33N 45°39' W 122°45'0 0.0
2016-May-21 16:33N 45°39' W 122°45'0 0.0
2016-May-21 15:33N 45°39' W 122°45'1 0.9
2016-May-21 14:33N 45°39' W 122°47'5 5.0
2016-May-21 13:30N 45°34' W 122°44'1 0.6
2016-May-21 12:31N 45°34' W 122°44'1 1.5
2016-May-21 11:33N 45°35' W 122°46'4 3.5
2016-May-21 10:32N 45°39' W 122°45'0 0.0
2016-May-21 09:32N 45°39' W 122°45'0 0.0
2016-May-21 08:29N 45°39' W 122°45'0 0.0
2016-May-21 07:32N 45°39' W 122°45'2 2.3
2016-May-21 06:33N 45°37' W 122°47'1 0.8
2016-May-21 05:33N 45°36' W 122°47'2 2.3
2016-May-21 04:34N 45°39' W 122°47'1 1.1
2016-May-21 03:31N 45°39' W 122°45'2 2.3
2016-May-21 02:33N 45°37' W 122°47'1 1.2
2016-May-21 01:34N 45°36' W 122°47'5 5.4
2016-May-21 00:33N 45°42' W 122°46'1010.1
2016-May-20 23:33N 45°52' W 122°47'10 9.6
2016-May-20 22:33N 46°01' W 122°52'7 7.3
2016-May-20 21:34N 46°07' W 122°58'0 0.2
2016-May-20 20:33N 46°06' W 122°58'2 1.6
2016-May-20 19:33N 46°05' W 122°56'0 0.0
2016-May-20 18:33N 46°05' W 122°56'0 0.0
2016-May-20 17:33N 46°05' W 122°56'0 0.0
2016-May-20 16:33N 46°05' W 122°56'0 0.0
2016-May-20 15:33N 46°05' W 122°56'0 0.0
2016-May-20 14:33N 46°05' W 122°56'0 0.0
2016-May-20 13:33N 46°05' W 122°56'0 0.0
2016-May-20 12:33N 46°05' W 122°56'0 0.0
2016-May-20 11:33N 46°05' W 122°56'0 0.0
2016-May-20 10:33N 46°05' W 122°56'0 0.0
2016-May-20 09:33N 46°05' W 122°56'7 7.2
2016-May-20 08:33N 46°10' W 123°04'8 7.8
2016-May-20 07:33N 46°09' W 123°16'7 7.4
2016-May-20 06:33N 46°11' W 123°26'6 6.4
2016-May-20 05:34N 46°15' W 123°33'9 8.7
2016-May-20 04:33N 46°13' W 123°45'5 4.9
2016-May-20 03:33N 46°11' W 123°52'2 1.6
2016-May-20 02:33N 46°11' W 123°54'1 1.5
2016-May-20 01:33N 46°11' W 123°52'0 0.1
2016-May-20 00:33N 46°11' W 123°52'8 7.9
2016-May-19 23:33N 46°15' W 123°41'8 7.7
2016-May-19 22:33N 46°16' W 123°30'6 5.7
2016-May-19 21:33N 46°11' W 123°26'6 6.0
2016-May-19 20:33N 46°09' W 123°18'7 6.8
2016-May-19 19:33N 46°11' W 123°09'8 7.8
2016-May-19 18:33N 46°07' W 122°59'6 6.4
2016-May-19 17:33N 46°03' W 122°53'4 4.3
2016-May-19 16:33N 45°59' W 122°50'5 4.8
2016-May-19 15:33N 46°03' W 122°53'3 2.9
2016-May-19 14:33N 46°05' W 122°56'2 1.6
2016-May-19 13:33N 46°07' W 122°58'0 0.4
2016-May-19 12:33N 46°07' W 122°58'2 2.0
2016-May-19 11:33N 46°05' W 122°56'0 0.0
2016-May-19 10:33N 46°05' W 122°56'0 0.0
2016-May-19 09:33N 46°05' W 122°56'0 0.0
2016-May-19 08:33N 46°05' W 122°56'0 0.0
2016-May-19 07:33N 46°05' W 122°56'0 0.0
2016-May-19 06:33N 46°05' W 122°56'0 0.0
2016-May-19 05:33N 46°05' W 122°56'0 0.0
2016-May-19 04:33N 46°05' W 122°56'0 0.0
2016-May-19 03:33N 46°05' W 122°56'0 0.0
2016-May-19 02:33N 46°05' W 122°56'0 0.4
2016-May-19 01:33N 46°05' W 122°55'0 0.0
2016-May-19 00:33N 46°05' W 122°55'1 1.0
2016-May-18 23:33N 46°06' W 122°56'0 0.0
2016-May-18 22:33N 46°06' W 122°56'1 0.9
2016-May-18 21:33N 46°06' W 122°58'1 0.6
2016-May-18 20:33N 46°06' W 122°57'1 1.0
2016-May-18 19:33N 46°05' W 122°56'0 0.0
2016-May-18 18:33N 46°05' W 122°56'0 0.0
2016-May-18 17:33N 46°05' W 122°56'5 4.6
2016-May-18 16:34N 46°02' W 122°52'0 0.0
2016-May-18 15:34N 46°02' W 122°52'0 0.0
2016-May-18 14:33N 46°02' W 122°52'0 0.0
2016-May-18 13:33N 46°02' W 122°52'0 0.0
2016-May-18 12:33N 46°02' W 122°52'0 0.0
2016-May-18 11:33N 46°02' W 122°52'0 0.0
2016-May-18 10:33N 46°02' W 122°52'0 0.0
2016-May-18 09:33N 46°02' W 122°52'0 0.0
2016-May-18 08:34N 46°02' W 122°52'3 3.1
2016-May-18 07:33N 45°59' W 122°50'2 1.5
2016-May-18 06:33N 46°00' W 122°51'1 1.4
2016-May-18 05:33N 45°59' W 122°50'5 5.4
2016-May-18 04:33N 45°54' W 122°48'  
Track history (hours):
 
Tides and Currents Weather Stations Pressure Air Temp Water Temp Dewpoint Dewpoint Depression Visibility Wind Speed Wind Dir Waves Ship Positions

Sommer S

Owner: Shaver Transportation Company, Portland, OR. More information available from US FCC via Universal Licensing System and Coast Guard Vessel Documentation Center.

Last reported at 2016-May-28 04:30 UTC. Time now 2016-May-28 06:02 UTC.
Position N 45°39' W 122°44'.

Length 25 m; draft 16.5 m.

Type: Tug. MMSI: 367530080.

Date/timePositionNaut miles runAvg speedWind from/ knotsBaromVisibWave heightAir tempDewpointWater temp
2016-May-28 04:30N 45°39' W 122°44'1 1.5
2016-May-28 03:34N 45°38' W 122°42'1 0.9
2016-May-28 02:32N 45°38' W 122°44'0 0.0
2016-May-28 01:32N 45°38' W 122°44'1 0.6
2016-May-28 00:29N 45°39' W 122°44'1 1.0
2016-May-27 23:33N 45°38' W 122°43'0 0.0
2016-May-27 22:33N 45°38' W 122°43'0 0.0
2016-May-27 21:33N 45°38' W 122°43'0 0.5
2016-May-27 20:33N 45°38' W 122°44'0 0.0
2016-May-27 19:33N 45°38' W 122°44'3 3.1
2016-May-27 18:33N 45°36' W 122°47'3 3.2
2016-May-27 17:33N 45°34' W 122°44'0 0.0
2016-May-27 16:33N 45°34' W 122°44'0 0.0
2016-May-27 15:33N 45°34' W 122°44'0 0.0
2016-May-27 14:33N 45°34' W 122°44'0 0.0
2016-May-27 13:33N 45°34' W 122°44'0 0.0
2016-May-27 12:30N 45°34' W 122°44'0 0.0
2016-May-27 11:30N 45°34' W 122°44'0 0.1
2016-May-27 10:33N 45°34' W 122°44'5 5.3
2016-May-27 09:33N 45°38' W 122°47'1 1.1
2016-May-27 08:33N 45°39' W 122°46'1 0.8
2016-May-27 07:30N 45°39' W 122°45'0 0.0
2016-May-27 06:33N 45°39' W 122°45'0 0.0
2016-May-27 05:27N 45°39' W 122°45'0 0.0
2016-May-27 04:34N 45°39' W 122°45'0 0.0
2016-May-27 03:31N 45°39' W 122°45'1 1.2
2016-May-27 02:31N 45°38' W 122°43'0 0.1
2016-May-27 01:33N 45°38' W 122°43'0 0.3
2016-May-27 00:33N 45°38' W 122°43'1 0.8
2016-May-26 23:32N 45°38' W 122°44'0 0.0
2016-May-26 22:32N 45°38' W 122°44'2 1.6
2016-May-26 21:33N 45°38' W 122°42'2 1.5
2016-May-26 20:33N 45°38' W 122°44'0 0.0
2016-May-26 19:30N 45°38' W 122°44'0 0.0
2016-May-26 18:33N 45°38' W 122°44'1 0.9
2016-May-26 17:32N 45°38' W 122°42'2 1.9
2016-May-26 16:29N 45°39' W 122°45'0 0.0
2016-May-26 15:32N 45°39' W 122°45'0 0.0
2016-May-26 14:26N 45°39' W 122°45'0 0.0
2016-May-26 13:32N 45°39' W 122°45'3 3.0
2016-May-26 12:34N 45°36' W 122°47'2 2.3
2016-May-26 11:31N 45°34' W 122°44'5 5.4
2016-May-26 10:33N 45°39' W 122°46'1 0.9
2016-May-26 09:32N 45°38' W 122°46'1 0.8
2016-May-26 08:28N 45°39' W 122°45'0 0.0
2016-May-26 07:31N 45°39' W 122°45'0 0.0
2016-May-26 06:31N 45°39' W 122°45'0 0.0
2016-May-26 05:28N 45°39' W 122°45'0 0.0
2016-May-26 04:28N 45°39' W 122°45'0 0.0
2016-May-26 03:28N 45°39' W 122°45'0 0.2
2016-May-26 02:28N 45°39' W 122°45'0 0.2
2016-May-26 01:33N 45°39' W 122°45'0 0.0
2016-May-26 00:30N 45°39' W 122°45'0 0.0
2016-May-25 23:33N 45°39' W 122°45'0 0.0
2016-May-25 22:30N 45°39' W 122°45'0 0.0
2016-May-25 21:33N 45°39' W 122°45'1 1.3
2016-May-25 20:33N 45°39' W 122°43'1 0.6
2016-May-25 19:28N 45°38' W 122°43'2 1.9
2016-May-25 18:29N 45°39' W 122°45'0 0.0
2016-May-25 17:29N 45°39' W 122°45'1 0.8
2016-May-25 16:34N 45°39' W 122°46'5 4.4
2016-May-25 15:26N 45°34' W 122°44'1 0.7
2016-May-25 14:33N 45°35' W 122°45'4 4.0
2016-May-25 13:33N 45°38' W 122°44'1 1.1
2016-May-25 12:32N 45°38' W 122°42'2 2.1
2016-May-25 11:32N 45°39' W 122°45'0 0.0
2016-May-25 10:29N 45°39' W 122°45'0 0.0
2016-May-25 09:29N 45°39' W 122°45'0 0.0
2016-May-25 08:32N 45°39' W 122°45'0 0.0
2016-May-25 07:32N 45°39' W 122°45'0 0.0
2016-May-25 06:29N 45°39' W 122°45'0 0.0
2016-May-25 05:29N 45°39' W 122°45'0 0.0
2016-May-25 04:32N 45°39' W 122°45'0 0.0
2016-May-25 03:29N 45°39' W 122°45'0 0.0
2016-May-25 02:32N 45°39' W 122°45'0 0.0
2016-May-25 01:32N 45°39' W 122°45'3 2.5
2016-May-25 00:31N 45°38' W 122°42'1 1.1
2016-May-24 23:33N 45°38' W 122°43'1 1.1
2016-May-24 22:30N 45°38' W 122°42'2 2.3
2016-May-24 21:29N 45°39' W 122°45'0 0.0
2016-May-24 20:29N 45°39' W 122°45'0 0.0
2016-May-24 19:29N 45°39' W 122°45'0 0.0
2016-May-24 18:29N 45°39' W 122°45'2 2.4
2016-May-24 17:33N 45°37' W 122°47'4 4.1
2016-May-24 16:34N 45°34' W 122°44'0 0.2
2016-May-24 15:29N 45°34' W 122°44'0 0.1
2016-May-24 14:34N 45°34' W 122°44'0 0.0
2016-May-24 09:33N 45°34' W 122°44'5 5.0
2016-May-24 08:33N 45°39' W 122°45'1 1.0
2016-May-24 07:28N 45°38' W 122°44'1 0.7
2016-May-24 06:33N 45°39' W 122°45'1 0.7
2016-May-24 05:31N 45°38' W 122°44'2 1.6
2016-May-24 04:33N 45°39' W 122°45'6 5.8
2016-May-24 03:31N 45°33' W 122°43'2 2.0
2016-May-24 02:33N 45°32' W 122°41'3 2.5
2016-May-24 01:33N 45°34' W 122°44'0 0.0
2016-May-24 00:31N 45°34' W 122°44'1 1.3
2016-May-23 23:33N 45°35' W 122°45'4 4.0
2016-May-23 22:33N 45°39' W 122°45'1 1.0
2016-May-23 21:33N 45°39' W 122°46'0 0.4
2016-May-23 20:33N 45°39' W 122°46'1 0.5
2016-May-23 19:28N 45°39' W 122°45'1 0.6
2016-May-23 18:33N 45°39' W 122°44'1 0.5
2016-May-23 17:28N 45°39' W 122°45'3 2.6
2016-May-23 16:29N 45°38' W 122°42'2 1.6
2016-May-23 15:34N 45°38' W 122°44'4 3.8
2016-May-23 14:33N 45°35' W 122°45'1 1.2
2016-May-23 13:32N 45°34' W 122°44'0 0.0
2016-May-23 12:32N 45°34' W 122°44'0 0.0
2016-May-23 11:32N 45°34' W 122°44'0 0.0
2016-May-23 10:32N 45°34' W 122°44'0 0.0
2016-May-23 09:29N 45°34' W 122°44'0 0.0
2016-May-23 08:26N 45°34' W 122°44'2 2.1
2016-May-23 07:34N 45°35' W 122°46'4 3.6
2016-May-23 06:32N 45°39' W 122°44'1 1.4
2016-May-23 05:34N 45°40' W 122°46'1 1.0
2016-May-23 04:32N 45°39' W 122°45'0 0.0
2016-May-23 03:32N 45°39' W 122°45'5 5.2
2016-May-23 02:33N 45°34' W 122°43'1 1.2
2016-May-23 01:28N 45°33' W 122°42'5 5.8
2016-May-23 00:33N 45°37' W 122°47'2 2.4
2016-May-22 23:32N 45°39' W 122°45'1 0.5
2016-May-22 22:33N 45°39' W 122°45'0 0.1
2016-May-22 21:31N 45°39' W 122°45'0 0.5
2016-May-22 20:33N 45°39' W 122°45'0 0.2
2016-May-22 19:25N 45°39' W 122°45'0 0.0
2016-May-22 18:31N 45°39' W 122°45'0 0.0
2016-May-22 17:31N 45°39' W 122°45'0 0.1
2016-May-22 16:33N 45°39' W 122°45'0 0.4
2016-May-22 15:29N 45°39' W 122°46'0 0.0
2016-May-22 14:32N 45°39' W 122°46'0 0.0
2016-May-22 13:32N 45°39' W 122°46'0 0.0
2016-May-22 12:29N 45°39' W 122°46'0 0.0
2016-May-22 11:32N 45°39' W 122°46'0 0.0
2016-May-22 10:29N 45°39' W 122°46'0 0.2
2016-May-22 09:33N 45°39' W 122°45'3 2.6
2016-May-22 08:33N 45°38' W 122°42'2 2.4
2016-May-22 07:34N 45°39' W 122°45'0 0.0
2016-May-22 06:33N 45°39' W 122°45'0 0.0
2016-May-22 05:33N 45°39' W 122°45'0 0.0
2016-May-22 04:33N 45°39' W 122°45'1 1.2
2016-May-22 03:34N 45°38' W 122°43'0 0.2
2016-May-22 02:34N 45°38' W 122°44'0 0.0
2016-May-22 01:31N 45°38' W 122°44'0 0.0
2016-May-22 00:31N 45°38' W 122°44'1 0.8
2016-May-21 23:27N 45°38' W 122°43'2 1.5
2016-May-21 22:23N 45°39' W 122°45'0 0.6
2016-May-21 21:34N 45°39' W 122°45'0 0.3
2016-May-21 20:33N 45°39' W 122°45'0 0.2
2016-May-21 19:33N 45°39' W 122°45'0 0.0
2016-May-21 18:27N 45°39' W 122°45'0 0.0
2016-May-21 17:33N 45°39' W 122°45'0 0.0
2016-May-21 16:33N 45°39' W 122°45'0 0.0
2016-May-21 15:33N 45°39' W 122°45'1 0.9
2016-May-21 14:33N 45°39' W 122°47'5 5.0
2016-May-21 13:30N 45°34' W 122°44'1 0.6
2016-May-21 12:31N 45°34' W 122°44'1 1.5
2016-May-21 11:33N 45°35' W 122°46'4 3.5
2016-May-21 10:32N 45°39' W 122°45'0 0.0
2016-May-21 09:32N 45°39' W 122°45'0 0.0
2016-May-21 08:29N 45°39' W 122°45'0 0.0
2016-May-21 07:32N 45°39' W 122°45'2 2.3
2016-May-21 06:33N 45°37' W 122°47'1 0.8
2016-May-21 05:33N 45°36' W 122°47'2 2.3
2016-May-21 04:34N 45°39' W 122°47'1 1.1
2016-May-21 03:31N 45°39' W 122°45'2 2.3
2016-May-21 02:33N 45°37' W 122°47'1 1.2
2016-May-21 01:34N 45°36' W 122°47'5 5.4
2016-May-21 00:33N 45°42' W 122°46'1010.1
2016-May-20 23:33N 45°52' W 122°47'10 9.6
2016-May-20 22:33N 46°01' W 122°52'7 7.3
2016-May-20 21:34N 46°07' W 122°58'0 0.2
2016-May-20 20:33N 46°06' W 122°58'2 1.6
2016-May-20 19:33N 46°05' W 122°56'0 0.0
2016-May-20 18:33N 46°05' W 122°56'0 0.0
2016-May-20 17:33N 46°05' W 122°56'0 0.0
2016-May-20 16:33N 46°05' W 122°56'0 0.0
2016-May-20 15:33N 46°05' W 122°56'0 0.0
2016-May-20 14:33N 46°05' W 122°56'0 0.0
2016-May-20 13:33N 46°05' W 122°56'0 0.0
2016-May-20 12:33N 46°05' W 122°56'0 0.0
2016-May-20 11:33N 46°05' W 122°56'0 0.0
2016-May-20 10:33N 46°05' W 122°56'0 0.0
2016-May-20 09:33N 46°05' W 122°56'7 7.2
2016-May-20 08:33N 46°10' W 123°04'8 7.8
2016-May-20 07:33N 46°09' W 123°16'7 7.4
2016-May-20 06:33N 46°11' W 123°26'6 6.4
2016-May-20 05:34N 46°15' W 123°33'9 8.7
2016-May-20 04:33N 46°13' W 123°45'5 4.9
2016-May-20 03:33N 46°11' W 123°52'2 1.6
2016-May-20 02:33N 46°11' W 123°54'1 1.5
2016-May-20 01:33N 46°11' W 123°52'0 0.1
2016-May-20 00:33N 46°11' W 123°52'8 7.9
2016-May-19 23:33N 46°15' W 123°41'8 7.7
2016-May-19 22:33N 46°16' W 123°30'6 5.7
2016-May-19 21:33N 46°11' W 123°26'6 6.0
2016-May-19 20:33N 46°09' W 123°18'7 6.8
2016-May-19 19:33N 46°11' W 123°09'8 7.8
2016-May-19 18:33N 46°07' W 122°59'6 6.4
2016-May-19 17:33N 46°03' W 122°53'4 4.3
2016-May-19 16:33N 45°59' W 122°50'5 4.8
2016-May-19 15:33N 46°03' W 122°53'3 2.9
2016-May-19 14:33N 46°05' W 122°56'2 1.6
2016-May-19 13:33N 46°07' W 122°58'0 0.4
2016-May-19 12:33N 46°07' W 122°58'2 2.0
2016-May-19 11:33N 46°05' W 122°56'0 0.0
2016-May-19 10:33N 46°05' W 122°56'0 0.0
2016-May-19 09:33N 46°05' W 122°56'0 0.0
2016-May-19 08:33N 46°05' W 122°56'0 0.0
2016-May-19 07:33N 46°05' W 122°56'0 0.0
2016-May-19 06:33N 46°05' W 122°56'0 0.0
2016-May-19 05:33N 46°05' W 122°56'0 0.0
2016-May-19 04:33N 46°05' W 122°56'0 0.0
2016-May-19 03:33N 46°05' W 122°56'0 0.0
2016-May-19 02:33N 46°05' W 122°56'0 0.4
2016-May-19 01:33N 46°05' W 122°55'0 0.0
2016-May-19 00:33N 46°05' W 122°55'1 1.0
2016-May-18 23:33N 46°06' W 122°56'0 0.0
2016-May-18 22:33N 46°06' W 122°56'1 0.9
2016-May-18 21:33N 46°06' W 122°58'1 0.6
2016-May-18 20:33N 46°06' W 122°57'1 1.0
2016-May-18 19:33N 46°05' W 122°56'0 0.0
2016-May-18 18:33N 46°05' W 122°56'0 0.0
2016-May-18 17:33N 46°05' W 122°56'5 4.6
2016-May-18 16:34N 46°02' W 122°52'0 0.0
2016-May-18 15:34N 46°02' W 122°52'0 0.0
2016-May-18 14:33N 46°02' W 122°52'0 0.0
2016-May-18 13:33N 46°02' W 122°52'0 0.0
2016-May-18 12:33N 46°02' W 122°52'0 0.0
2016-May-18 11:33N 46°02' W 122°52'0 0.0
2016-May-18 10:33N 46°02' W 122°52'0 0.0
2016-May-18 09:33N 46°02' W 122°52'0 0.0
2016-May-18 08:34N 46°02' W 122°52'3 3.1
2016-May-18 07:33N 45°59' W 122°50'2 1.5
2016-May-18 06:33N 46°00' W 122°51'1 1.4
2016-May-18 05:33N 45°59' W 122°50'5 5.4
2016-May-18 04:33N 45°54' W 122°48'  

Dump ship's entire track history